sensor_id;sensor_type;location;lat;lon;timestamp;temperature;humidity
11748;DHT22;5931;48.832;9.072;2023-05-07T00:01:27;10.70;99.90
11748;DHT22;5931;48.832;9.072;2023-05-07T00:03:52;10.70;99.90
11748;DHT22;5931;48.832;9.072;2023-05-07T00:06:18;10.70;99.90
11748;DHT22;5931;48.832;9.072;2023-05-07T00:08:44;10.90;99.90
11748;DHT22;5931;48.832;9.072;2023-05-07T00:11:10;10.90;99.90
11748;DHT22;5931;48.832;9.072;2023-05-07T00:13:36;10.90;99.90
11748;DHT22;5931;48.832;9.072;2023-05-07T00:16:02;10.90;99.90
11748;DHT22;5931;48.832;9.072;2023-05-07T00:18:28;11.00;99.90
11748;DHT22;5931;48.832;9.072;2023-05-07T00:20:54;11.00;99.90
11748;DHT22;5931;48.832;9.072;2023-05-07T00:23:19;10.90;99.90
11748;DHT22;5931;48.832;9.072;2023-05-07T00:25:45;10.90;99.90
11748;DHT22;5931;48.832;9.072;2023-05-07T00:28:10;10.80;99.90
11748;DHT22;5931;48.832;9.072;2023-05-07T00:30:36;10.80;99.90
11748;DHT22;5931;48.832;9.072;2023-05-07T00:33:02;10.70;99.90
11748;DHT22;5931;48.832;9.072;2023-05-07T00:35:28;10.70;99.90
11748;DHT22;5931;48.832;9.072;2023-05-07T00:37:54;10.70;99.90
11748;DHT22;5931;48.832;9.072;2023-05-07T00:40:20;10.70;99.90
11748;DHT22;5931;48.832;9.072;2023-05-07T00:42:46;10.70;99.90
11748;DHT22;5931;48.832;9.072;2023-05-07T00:45:16;10.60;99.90
11748;DHT22;5931;48.832;9.072;2023-05-07T00:47:42;10.60;99.90
11748;DHT22;5931;48.832;9.072;2023-05-07T00:50:08;10.50;99.90
11748;DHT22;5931;48.832;9.072;2023-05-07T00:52:38;10.60;99.90
11748;DHT22;5931;48.832;9.072;2023-05-07T00:55:05;10.60;99.90
11748;DHT22;5931;48.832;9.072;2023-05-07T00:57:40;10.60;99.90
11748;DHT22;5931;48.832;9.072;2023-05-07T01:00:06;10.50;99.90
11748;DHT22;5931;48.832;9.072;2023-05-07T01:02:40;10.50;99.90
11748;DHT22;5931;48.832;9.072;2023-05-07T01:05:10;10.40;99.90
11748;DHT22;5931;48.832;9.072;2023-05-07T01:07:38;10.40;99.90
11748;DHT22;5931;48.832;9.072;2023-05-07T01:10:06;10.30;99.90
11748;DHT22;5931;48.832;9.072;2023-05-07T01:12:33;10.30;99.90
11748;DHT22;5931;48.832;9.072;2023-05-07T01:14:59;10.20;99.90
11748;DHT22;5931;48.832;9.072;2023-05-07T01:17:25;10.20;99.90
11748;DHT22;5931;48.832;9.072;2023-05-07T01:19:52;10.10;99.90
11748;DHT22;5931;48.832;9.072;2023-05-07T01:22:45;10.10;99.90
11748;DHT22;5931;48.832;9.072;2023-05-07T01:25:11;10.10;99.90
11748;DHT22;5931;48.832;9.072;2023-05-07T01:27:42;10.10;99.90
11748;DHT22;5931;48.832;9.072;2023-05-07T01:30:08;10.20;99.90
11748;DHT22;5931;48.832;9.072;2023-05-07T01:33:18;10.30;99.90
11748;DHT22;5931;48.832;9.072;2023-05-07T01:35:28;10.20;99.90
11748;DHT22;5931;48.832;9.072;2023-05-07T01:37:54;10.20;99.90
11748;DHT22;5931;48.832;9.072;2023-05-07T01:40:21;10.20;99.90
11748;DHT22;5931;48.832;9.072;2023-05-07T01:42:47;10.20;99.90
11748;DHT22;5931;48.832;9.072;2023-05-07T01:45:14;10.20;99.90
11748;DHT22;5931;48.832;9.072;2023-05-07T01:47:39;10.20;99.90
11748;DHT22;5931;48.832;9.072;2023-05-07T01:50:06;10.20;99.90
11748;DHT22;5931;48.832;9.072;2023-05-07T01:52:33;10.30;99.90
11748;DHT22;5931;48.832;9.072;2023-05-07T01:54:59;10.40;99.90
11748;DHT22;5931;48.832;9.072;2023-05-07T01:57:25;10.40;99.90
11748;DHT22;5931;48.832;9.072;2023-05-07T01:59:51;10.50;99.90
11748;DHT22;5931;48.832;9.072;2023-05-07T02:02:17;10.60;99.90
11748;DHT22;5931;48.832;9.072;2023-05-07T02:04:43;10.70;99.90
11748;DHT22;5931;48.832;9.072;2023-05-07T02:07:10;10.70;99.90
11748;DHT22;5931;48.832;9.072;2023-05-07T02:09:36;10.80;99.90
11748;DHT22;5931;48.832;9.072;2023-05-07T02:12:03;10.70;99.90
11748;DHT22;5931;48.832;9.072;2023-05-07T02:14:28;10.70;99.90
11748;DHT22;5931;48.832;9.072;2023-05-07T02:16:54;10.70;99.90
11748;DHT22;5931;48.832;9.072;2023-05-07T02:19:20;10.60;99.90
11748;DHT22;5931;48.832;9.072;2023-05-07T02:21:47;10.60;99.90
11748;DHT22;5931;48.832;9.072;2023-05-07T02:24:13;10.60;99.90
11748;DHT22;5931;48.832;9.072;2023-05-07T02:26:40;10.50;99.90
11748;DHT22;5931;48.832;9.072;2023-05-07T02:29:06;10.40;99.90
11748;DHT22;5931;48.832;9.072;2023-05-07T02:31:32;10.40;99.90
11748;DHT22;5931;48.832;9.072;2023-05-07T02:34:00;10.30;99.90
11748;DHT22;5931;48.832;9.072;2023-05-07T02:36:26;10.30;99.90
11748;DHT22;5931;48.832;9.072;2023-05-07T02:39:18;10.30;99.90
11748;DHT22;5931;48.832;9.072;2023-05-07T02:41:43;10.20;99.90
11748;DHT22;5931;48.832;9.072;2023-05-07T02:44:09;10.20;99.90
11748;DHT22;5931;48.832;9.072;2023-05-07T02:46:35;10.20;99.90
11748;DHT22;5931;48.832;9.072;2023-05-07T02:49:06;10.10;99.90
11748;DHT22;5931;48.832;9.072;2023-05-07T02:51:32;10.10;99.90
11748;DHT22;5931;48.832;9.072;2023-05-07T02:54:01;10.00;99.90
11748;DHT22;5931;48.832;9.072;2023-05-07T02:56:28;10.00;99.90
11748;DHT22;5931;48.832;9.072;2023-05-07T02:58:53;10.00;99.90
11748;DHT22;5931;48.832;9.072;2023-05-07T03:01:22;10.00;99.90
11748;DHT22;5931;48.832;9.072;2023-05-07T03:03:54;9.90;99.90
11748;DHT22;5931;48.832;9.072;2023-05-07T03:06:20;9.90;99.90
11748;DHT22;5931;48.832;9.072;2023-05-07T03:08:46;9.80;99.90
11748;DHT22;5931;48.832;9.072;2023-05-07T03:11:11;9.80;99.90
11748;DHT22;5931;48.832;9.072;2023-05-07T03:13:37;9.70;99.90
11748;DHT22;5931;48.832;9.072;2023-05-07T03:16:03;9.70;99.90
11748;DHT22;5931;48.832;9.072;2023-05-07T03:18:28;9.60;99.90
11748;DHT22;5931;48.832;9.072;2023-05-07T03:20:54;9.60;99.90
11748;DHT22;5931;48.832;9.072;2023-05-07T03:23:20;9.60;99.90
11748;DHT22;5931;48.832;9.072;2023-05-07T03:25:45;9.60;99.90
11748;DHT22;5931;48.832;9.072;2023-05-07T03:28:11;9.60;99.90
11748;DHT22;5931;48.832;9.072;2023-05-07T03:30:43;9.60;99.90
11748;DHT22;5931;48.832;9.072;2023-05-07T03:33:08;9.50;99.90
11748;DHT22;5931;48.832;9.072;2023-05-07T03:35:35;9.50;99.90
11748;DHT22;5931;48.832;9.072;2023-05-07T03:38:01;9.40;99.90
11748;DHT22;5931;48.832;9.072;2023-05-07T03:40:30;9.40;99.90
11748;DHT22;5931;48.832;9.072;2023-05-07T03:42:55;9.40;99.90
11748;DHT22;5931;48.832;9.072;2023-05-07T03:45:24;9.30;99.90
11748;DHT22;5931;48.832;9.072;2023-05-07T03:47:58;9.30;99.90
11748;DHT22;5931;48.832;9.072;2023-05-07T03:50:24;9.40;99.90
11748;DHT22;5931;48.832;9.072;2023-05-07T03:52:49;9.40;99.90
11748;DHT22;5931;48.832;9.072;2023-05-07T03:55:18;9.40;99.90
11748;DHT22;5931;48.832;9.072;2023-05-07T03:57:49;9.40;99.90
11748;DHT22;5931;48.832;9.072;2023-05-07T04:00:15;9.40;99.90
11748;DHT22;5931;48.832;9.072;2023-05-07T04:02:47;9.40;99.90
11748;DHT22;5931;48.832;9.072;2023-05-07T04:05:15;9.40;99.90
11748;DHT22;5931;48.832;9.072;2023-05-07T04:07:42;9.50;99.90
11748;DHT22;5931;48.832;9.072;2023-05-07T04:10:10;9.50;99.90
11748;DHT22;5931;48.832;9.072;2023-05-07T04:12:37;9.50;99.90
11748;DHT22;5931;48.832;9.072;2023-05-07T04:15:05;9.60;99.90
11748;DHT22;5931;48.832;9.072;2023-05-07T04:17:31;9.60;99.90
11748;DHT22;5931;48.832;9.072;2023-05-07T04:19:56;9.60;99.90
11748;DHT22;5931;48.832;9.072;2023-05-07T04:22:22;9.70;99.90
11748;DHT22;5931;48.832;9.072;2023-05-07T04:24:48;9.70;99.90
11748;DHT22;5931;48.832;9.072;2023-05-07T04:27:13;9.80;99.90
11748;DHT22;5931;48.832;9.072;2023-05-07T04:29:39;9.90;99.90
11748;DHT22;5931;48.832;9.072;2023-05-07T04:32:09;10.00;99.90
11748;DHT22;5931;48.832;9.072;2023-05-07T04:34:37;10.00;99.90
11748;DHT22;5931;48.832;9.072;2023-05-07T04:37:02;10.10;99.90
11748;DHT22;5931;48.832;9.072;2023-05-07T04:39:29;10.10;99.90
11748;DHT22;5931;48.832;9.072;2023-05-07T04:41:55;10.20;99.90
11748;DHT22;5931;48.832;9.072;2023-05-07T04:44:21;10.30;99.90
11748;DHT22;5931;48.832;9.072;2023-05-07T04:46:47;10.40;99.90
11748;DHT22;5931;48.832;9.072;2023-05-07T04:49:13;10.50;99.90
11748;DHT22;5931;48.832;9.072;2023-05-07T04:51:39;10.60;99.90
11748;DHT22;5931;48.832;9.072;2023-05-07T04:54:09;10.70;99.90
11748;DHT22;5931;48.832;9.072;2023-05-07T04:56:35;10.80;99.90
11748;DHT22;5931;48.832;9.072;2023-05-07T04:59:02;10.90;99.90
11748;DHT22;5931;48.832;9.072;2023-05-07T05:01:28;10.90;99.90
11748;DHT22;5931;48.832;9.072;2023-05-07T05:03:54;11.00;99.90
11748;DHT22;5931;48.832;9.072;2023-05-07T05:06:20;11.00;99.90
11748;DHT22;5931;48.832;9.072;2023-05-07T05:08:45;10.90;99.90
11748;DHT22;5931;48.832;9.072;2023-05-07T05:11:11;11.00;99.90
11748;DHT22;5931;48.832;9.072;2023-05-07T05:13:37;11.00;99.90
11748;DHT22;5931;48.832;9.072;2023-05-07T05:16:10;11.10;99.90
11748;DHT22;5931;48.832;9.072;2023-05-07T05:18:36;11.20;99.90
11748;DHT22;5931;48.832;9.072;2023-05-07T05:21:02;11.30;99.90
11748;DHT22;5931;48.832;9.072;2023-05-07T05:23:28;11.40;99.90
11748;DHT22;5931;48.832;9.072;2023-05-07T05:25:56;11.50;99.90
11748;DHT22;5931;48.832;9.072;2023-05-07T05:28:25;11.70;99.90
11748;DHT22;5931;48.832;9.072;2023-05-07T05:30:50;11.80;99.90
11748;DHT22;5931;48.832;9.072;2023-05-07T05:33:17;12.10;99.90
11748;DHT22;5931;48.832;9.072;2023-05-07T05:35:42;12.30;99.90
11748;DHT22;5931;48.832;9.072;2023-05-07T05:38:11;12.60;99.90
11748;DHT22;5931;48.832;9.072;2023-05-07T05:40:37;12.80;99.90
11748;DHT22;5931;48.832;9.072;2023-05-07T05:43:03;13.00;99.90
11748;DHT22;5931;48.832;9.072;2023-05-07T05:45:30;13.00;99.90
11748;DHT22;5931;48.832;9.072;2023-05-07T05:47:56;13.10;99.90
11748;DHT22;5931;48.832;9.072;2023-05-07T05:50:22;13.20;99.90
11748;DHT22;5931;48.832;9.072;2023-05-07T05:52:48;13.30;99.90
11748;DHT22;5931;48.832;9.072;2023-05-07T05:55:16;13.20;99.90
11748;DHT22;5931;48.832;9.072;2023-05-07T05:57:41;13.20;99.90
11748;DHT22;5931;48.832;9.072;2023-05-07T06:00:09;13.30;99.90
11748;DHT22;5931;48.832;9.072;2023-05-07T06:02:44;13.30;99.90
11748;DHT22;5931;48.832;9.072;2023-05-07T06:05:11;13.60;99.90
11748;DHT22;5931;48.832;9.072;2023-05-07T06:07:37;13.90;99.90
11748;DHT22;5931;48.832;9.072;2023-05-07T06:10:03;14.00;99.90
11748;DHT22;5931;48.832;9.072;2023-05-07T06:12:31;14.30;99.90
11748;DHT22;5931;48.832;9.072;2023-05-07T06:14:57;14.50;99.90
11748;DHT22;5931;48.832;9.072;2023-05-07T06:17:23;14.70;99.90
11748;DHT22;5931;48.832;9.072;2023-05-07T06:19:49;14.70;99.90
11748;DHT22;5931;48.832;9.072;2023-05-07T06:22:17;14.90;99.90
11748;DHT22;5931;48.832;9.072;2023-05-07T06:24:43;15.00;99.90
11748;DHT22;5931;48.832;9.072;2023-05-07T06:27:09;15.00;99.90
11748;DHT22;5931;48.832;9.072;2023-05-07T06:29:34;14.90;99.90
11748;DHT22;5931;48.832;9.072;2023-05-07T06:32:11;14.90;99.90
11748;DHT22;5931;48.832;9.072;2023-05-07T06:34:40;14.90;99.90
11748;DHT22;5931;48.832;9.072;2023-05-07T06:37:06;14.90;99.90
11748;DHT22;5931;48.832;9.072;2023-05-07T06:39:54;14.90;99.90
11748;DHT22;5931;48.832;9.072;2023-05-07T06:42:19;15.10;99.90
11748;DHT22;5931;48.832;9.072;2023-05-07T06:44:47;15.20;99.90
11748;DHT22;5931;48.832;9.072;2023-05-07T06:47:15;15.40;99.90
11748;DHT22;5931;48.832;9.072;2023-05-07T06:49:41;15.70;99.90
11748;DHT22;5931;48.832;9.072;2023-05-07T06:52:07;15.90;99.90
11748;DHT22;5931;48.832;9.072;2023-05-07T06:54:33;16.00;99.90
11748;DHT22;5931;48.832;9.072;2023-05-07T06:56:58;16.20;99.90
11748;DHT22;5931;48.832;9.072;2023-05-07T06:59:26;16.40;99.90
11748;DHT22;5931;48.832;9.072;2023-05-07T07:01:52;16.50;99.90
11748;DHT22;5931;48.832;9.072;2023-05-07T07:04:18;16.70;99.90
11748;DHT22;5931;48.832;9.072;2023-05-07T07:06:51;16.80;99.90
11748;DHT22;5931;48.832;9.072;2023-05-07T07:09:17;16.90;99.90
11748;DHT22;5931;48.832;9.072;2023-05-07T07:11:42;17.00;99.90
11748;DHT22;5931;48.832;9.072;2023-05-07T07:14:08;17.20;99.90
11748;DHT22;5931;48.832;9.072;2023-05-07T07:16:40;17.40;99.90
11748;DHT22;5931;48.832;9.072;2023-05-07T07:19:06;17.70;99.90
11748;DHT22;5931;48.832;9.072;2023-05-07T07:21:32;17.90;99.90
11748;DHT22;5931;48.832;9.072;2023-05-07T07:23:58;17.80;99.90
11748;DHT22;5931;48.832;9.072;2023-05-07T07:26:24;18.00;99.90
11748;DHT22;5931;48.832;9.072;2023-05-07T07:28:50;18.30;99.90
11748;DHT22;5931;48.832;9.072;2023-05-07T07:31:19;18.80;99.90
11748;DHT22;5931;48.832;9.072;2023-05-07T07:33:45;19.20;99.90
11748;DHT22;5931;48.832;9.072;2023-05-07T07:36:11;19.40;99.90
11748;DHT22;5931;48.832;9.072;2023-05-07T07:38:37;19.80;99.90
11748;DHT22;5931;48.832;9.072;2023-05-07T07:41:03;20.10;99.90
11748;DHT22;5931;48.832;9.072;2023-05-07T07:43:29;20.40;99.90
11748;DHT22;5931;48.832;9.072;2023-05-07T07:45:55;20.40;99.90
11748;DHT22;5931;48.832;9.072;2023-05-07T07:48:21;20.50;99.90
11748;DHT22;5931;48.832;9.072;2023-05-07T07:50:50;20.30;99.90
11748;DHT22;5931;48.832;9.072;2023-05-07T07:53:19;20.60;99.90
11748;DHT22;5931;48.832;9.072;2023-05-07T07:55:45;20.80;99.90
11748;DHT22;5931;48.832;9.072;2023-05-07T07:58:15;20.90;99.90
11748;DHT22;5931;48.832;9.072;2023-05-07T08:00:40;20.60;99.90
11748;DHT22;5931;48.832;9.072;2023-05-07T08:03:09;20.60;99.90
11748;DHT22;5931;48.832;9.072;2023-05-07T08:05:38;20.80;99.90
11748;DHT22;5931;48.832;9.072;2023-05-07T08:08:05;20.90;99.90
11748;DHT22;5931;48.832;9.072;2023-05-07T08:10:33;20.90;99.90
11748;DHT22;5931;48.832;9.072;2023-05-07T08:13:04;21.10;99.90
11748;DHT22;5931;48.832;9.072;2023-05-07T08:15:31;21.30;99.90
11748;DHT22;5931;48.832;9.072;2023-05-07T08:17:58;21.50;99.90
11748;DHT22;5931;48.832;9.072;2023-05-07T08:20:26;21.60;99.90
11748;DHT22;5931;48.832;9.072;2023-05-07T08:22:52;21.80;99.90
11748;DHT22;5931;48.832;9.072;2023-05-07T08:25:19;21.70;99.90
11748;DHT22;5931;48.832;9.072;2023-05-07T08:27:45;21.80;99.90
11748;DHT22;5931;48.832;9.072;2023-05-07T08:30:11;21.90;99.90
11748;DHT22;5931;48.832;9.072;2023-05-07T08:32:37;21.90;99.90
11748;DHT22;5931;48.832;9.072;2023-05-07T08:35:03;22.00;99.90
11748;DHT22;5931;48.832;9.072;2023-05-07T08:37:29;22.20;99.90
11748;DHT22;5931;48.832;9.072;2023-05-07T08:39:55;22.30;99.90
11748;DHT22;5931;48.832;9.072;2023-05-07T08:42:24;22.40;99.90
11748;DHT22;5931;48.832;9.072;2023-05-07T08:44:54;22.50;99.90
11748;DHT22;5931;48.832;9.072;2023-05-07T08:47:23;22.60;99.90
11748;DHT22;5931;48.832;9.072;2023-05-07T08:49:53;22.80;99.90
11748;DHT22;5931;48.832;9.072;2023-05-07T08:52:20;22.80;99.90
11748;DHT22;5931;48.832;9.072;2023-05-07T08:54:46;22.90;99.90
11748;DHT22;5931;48.832;9.072;2023-05-07T08:57:13;23.00;99.90
11748;DHT22;5931;48.832;9.072;2023-05-07T08:59:39;23.00;99.90
11748;DHT22;5931;48.832;9.072;2023-05-07T09:02:07;22.90;99.90
11748;DHT22;5931;48.832;9.072;2023-05-07T09:04:34;23.10;99.90
11748;DHT22;5931;48.832;9.072;2023-05-07T09:07:01;23.10;99.90
11748;DHT22;5931;48.832;9.072;2023-05-07T09:09:34;23.10;99.90
11748;DHT22;5931;48.832;9.072;2023-05-07T09:12:02;23.20;99.90
11748;DHT22;5931;48.832;9.072;2023-05-07T09:14:32;23.40;99.90
11748;DHT22;5931;48.832;9.072;2023-05-07T09:16:58;23.50;99.90
11748;DHT22;5931;48.832;9.072;2023-05-07T09:19:25;23.40;99.90
11748;DHT22;5931;48.832;9.072;2023-05-07T09:22:03;23.50;99.90
11748;DHT22;5931;48.832;9.072;2023-05-07T09:24:37;23.60;99.90
11748;DHT22;5931;48.832;9.072;2023-05-07T09:27:06;23.40;99.90
11748;DHT22;5931;48.832;9.072;2023-05-07T09:29:32;23.30;99.90
11748;DHT22;5931;48.832;9.072;2023-05-07T09:32:05;23.20;99.90
11748;DHT22;5931;48.832;9.072;2023-05-07T09:34:31;23.20;99.90
11748;DHT22;5931;48.832;9.072;2023-05-07T09:37:04;23.20;99.90
11748;DHT22;5931;48.832;9.072;2023-05-07T09:39:44;23.20;99.90
11748;DHT22;5931;48.832;9.072;2023-05-07T09:42:12;23.20;99.90
11748;DHT22;5931;48.832;9.072;2023-05-07T09:44:39;23.20;99.90
11748;DHT22;5931;48.832;9.072;2023-05-07T09:47:10;23.20;99.90
11748;DHT22;5931;48.832;9.072;2023-05-07T09:49:46;23.10;99.90
11748;DHT22;5931;48.832;9.072;2023-05-07T09:52:14;23.20;99.90
11748;DHT22;5931;48.832;9.072;2023-05-07T09:54:47;23.30;99.90
11748;DHT22;5931;48.832;9.072;2023-05-07T09:57:17;23.50;99.90
11748;DHT22;5931;48.832;9.072;2023-05-07T09:59:47;23.60;99.90
11748;DHT22;5931;48.832;9.072;2023-05-07T10:02:17;23.80;99.90
11748;DHT22;5931;48.832;9.072;2023-05-07T10:04:48;23.80;99.90
11748;DHT22;5931;48.832;9.072;2023-05-07T10:07:18;23.90;99.90
11748;DHT22;5931;48.832;9.072;2023-05-07T10:09:44;24.00;99.90
11748;DHT22;5931;48.832;9.072;2023-05-07T10:12:21;24.20;99.90
11748;DHT22;5931;48.832;9.072;2023-05-07T10:14:48;24.50;99.90
11748;DHT22;5931;48.832;9.072;2023-05-07T10:17:16;24.50;99.90
11748;DHT22;5931;48.832;9.072;2023-05-07T10:19:44;24.30;99.90
11748;DHT22;5931;48.832;9.072;2023-05-07T10:22:11;24.20;99.90
11748;DHT22;5931;48.832;9.072;2023-05-07T10:24:44;24.20;99.90
11748;DHT22;5931;48.832;9.072;2023-05-07T10:27:16;24.40;99.90
11748;DHT22;5931;48.832;9.072;2023-05-07T10:32:53;24.50;99.90
11748;DHT22;5931;48.832;9.072;2023-05-07T10:35:29;24.50;99.90
11748;DHT22;5931;48.832;9.072;2023-05-07T10:37:57;24.60;99.90
11748;DHT22;5931;48.832;9.072;2023-05-07T10:40:26;24.70;99.90
11748;DHT22;5931;48.832;9.072;2023-05-07T10:43:11;24.80;99.90
11748;DHT22;5931;48.832;9.072;2023-05-07T10:45:42;24.60;99.90
11748;DHT22;5931;48.832;9.072;2023-05-07T10:48:16;24.50;99.90
11748;DHT22;5931;48.832;9.072;2023-05-07T10:50:48;24.40;99.90
11748;DHT22;5931;48.832;9.072;2023-05-07T10:56:25;24.30;99.90
11748;DHT22;5931;48.832;9.072;2023-05-07T11:01:55;23.80;99.90
11748;DHT22;5931;48.832;9.072;2023-05-07T11:04:45;23.10;99.90
11748;DHT22;5931;48.832;9.072;2023-05-07T11:07:33;22.40;99.90
11748;DHT22;5931;48.832;9.072;2023-05-07T11:10:04;21.70;99.90
11748;DHT22;5931;48.832;9.072;2023-05-07T11:15:14;20.40;99.90
11748;DHT22;5931;48.832;9.072;2023-05-07T11:17:55;20.00;99.90
11748;DHT22;5931;48.832;9.072;2023-05-07T11:26:49;19.50;99.90
11748;DHT22;5931;48.832;9.072;2023-05-07T11:29:18;19.50;99.90
11748;DHT22;5931;48.832;9.072;2023-05-07T11:31:48;19.50;99.90
11748;DHT22;5931;48.832;9.072;2023-05-07T11:34:15;19.40;99.90
11748;DHT22;5931;48.832;9.072;2023-05-07T11:36:47;19.40;99.90
11748;DHT22;5931;48.832;9.072;2023-05-07T11:39:30;19.40;99.90
11748;DHT22;5931;48.832;9.072;2023-05-07T11:42:01;19.50;99.90
11748;DHT22;5931;48.832;9.072;2023-05-07T11:44:43;19.50;99.90
11748;DHT22;5931;48.832;9.072;2023-05-07T11:47:10;19.60;99.90
11748;DHT22;5931;48.832;9.072;2023-05-07T11:49:36;19.60;99.90
11748;DHT22;5931;48.832;9.072;2023-05-07T11:52:02;19.60;99.90
11748;DHT22;5931;48.832;9.072;2023-05-07T11:54:35;19.60;99.90
11748;DHT22;5931;48.832;9.072;2023-05-07T11:57:01;19.70;99.90
11748;DHT22;5931;48.832;9.072;2023-05-07T11:59:27;19.80;99.90
11748;DHT22;5931;48.832;9.072;2023-05-07T12:01:55;19.90;99.90
11748;DHT22;5931;48.832;9.072;2023-05-07T12:04:21;20.00;99.90
11748;DHT22;5931;48.832;9.072;2023-05-07T12:06:47;20.10;99.90
11748;DHT22;5931;48.832;9.072;2023-05-07T12:09:13;20.10;99.90
11748;DHT22;5931;48.832;9.072;2023-05-07T12:11:38;20.20;99.90
11748;DHT22;5931;48.832;9.072;2023-05-07T12:14:05;20.30;99.90
11748;DHT22;5931;48.832;9.072;2023-05-07T12:16:31;20.30;99.90
11748;DHT22;5931;48.832;9.072;2023-05-07T12:18:57;20.20;99.90
11748;DHT22;5931;48.832;9.072;2023-05-07T12:21:24;20.20;99.90
11748;DHT22;5931;48.832;9.072;2023-05-07T12:23:50;20.00;99.90
11748;DHT22;5931;48.832;9.072;2023-05-07T12:26:16;19.60;99.90
11748;DHT22;5931;48.832;9.072;2023-05-07T12:28:42;19.30;99.90
11748;DHT22;5931;48.832;9.072;2023-05-07T12:31:08;19.00;99.90
11748;DHT22;5931;48.832;9.072;2023-05-07T12:33:34;18.80;99.90
11748;DHT22;5931;48.832;9.072;2023-05-07T12:36:03;18.70;99.90
11748;DHT22;5931;48.832;9.072;2023-05-07T12:38:35;18.70;99.90
11748;DHT22;5931;48.832;9.072;2023-05-07T12:41:01;18.70;99.90
11748;DHT22;5931;48.832;9.072;2023-05-07T12:43:28;18.70;99.90
11748;DHT22;5931;48.832;9.072;2023-05-07T12:45:56;18.70;99.90
11748;DHT22;5931;48.832;9.072;2023-05-07T12:48:23;18.70;99.90
11748;DHT22;5931;48.832;9.072;2023-05-07T12:50:53;18.60;99.90
11748;DHT22;5931;48.832;9.072;2023-05-07T12:53:21;18.60;99.90
11748;DHT22;5931;48.832;9.072;2023-05-07T12:55:49;18.50;99.90
11748;DHT22;5931;48.832;9.072;2023-05-07T12:58:29;18.50;99.90
11748;DHT22;5931;48.832;9.072;2023-05-07T13:00:56;18.40;99.90
11748;DHT22;5931;48.832;9.072;2023-05-07T13:03:31;18.20;99.90
11748;DHT22;5931;48.832;9.072;2023-05-07T13:06:02;18.10;99.90
11748;DHT22;5931;48.832;9.072;2023-05-07T13:08:30;18.00;99.90
11748;DHT22;5931;48.832;9.072;2023-05-07T13:11:01;18.00;99.90
11748;DHT22;5931;48.832;9.072;2023-05-07T13:13:31;17.90;99.90
11748;DHT22;5931;48.832;9.072;2023-05-07T13:15:56;17.70;99.90
11748;DHT22;5931;48.832;9.072;2023-05-07T13:18:23;17.40;99.90
11748;DHT22;5931;48.832;9.072;2023-05-07T13:20:49;17.30;99.90
11748;DHT22;5931;48.832;9.072;2023-05-07T13:23:15;17.10;99.90
11748;DHT22;5931;48.832;9.072;2023-05-07T13:25:40;17.00;99.90
11748;DHT22;5931;48.832;9.072;2023-05-07T13:28:06;16.90;99.90
11748;DHT22;5931;48.832;9.072;2023-05-07T13:30:32;16.80;99.90
11748;DHT22;5931;48.832;9.072;2023-05-07T13:32:58;16.60;99.90
11748;DHT22;5931;48.832;9.072;2023-05-07T13:35:23;16.60;99.90
11748;DHT22;5931;48.832;9.072;2023-05-07T13:37:49;16.50;99.90
11748;DHT22;5931;48.832;9.072;2023-05-07T13:40:15;16.50;99.90
11748;DHT22;5931;48.832;9.072;2023-05-07T13:42:41;16.50;99.90
11748;DHT22;5931;48.832;9.072;2023-05-07T13:45:07;16.50;99.90
11748;DHT22;5931;48.832;9.072;2023-05-07T13:47:34;16.60;99.90
11748;DHT22;5931;48.832;9.072;2023-05-07T13:49:59;16.60;99.90
11748;DHT22;5931;48.832;9.072;2023-05-07T13:52:25;16.70;99.90
11748;DHT22;5931;48.832;9.072;2023-05-07T13:54:51;16.80;99.90
11748;DHT22;5931;48.832;9.072;2023-05-07T13:57:18;16.90;99.90
11748;DHT22;5931;48.832;9.072;2023-05-07T13:59:43;16.80;99.90
11748;DHT22;5931;48.832;9.072;2023-05-07T14:02:09;16.80;99.90
11748;DHT22;5931;48.832;9.072;2023-05-07T14:04:35;16.90;99.90
11748;DHT22;5931;48.832;9.072;2023-05-07T14:07:01;16.90;99.90
11748;DHT22;5931;48.832;9.072;2023-05-07T14:09:26;16.90;99.90
11748;DHT22;5931;48.832;9.072;2023-05-07T14:11:52;16.90;99.90
11748;DHT22;5931;48.832;9.072;2023-05-07T14:14:18;16.80;99.90
11748;DHT22;5931;48.832;9.072;2023-05-07T14:16:44;16.80;99.90
11748;DHT22;5931;48.832;9.072;2023-05-07T14:19:11;16.70;99.90
11748;DHT22;5931;48.832;9.072;2023-05-07T14:21:37;16.60;99.90
11748;DHT22;5931;48.832;9.072;2023-05-07T14:24:02;16.50;99.90
11748;DHT22;5931;48.832;9.072;2023-05-07T14:26:28;16.50;99.90
11748;DHT22;5931;48.832;9.072;2023-05-07T14:28:54;16.40;99.90
11748;DHT22;5931;48.832;9.072;2023-05-07T14:31:23;16.40;99.90
11748;DHT22;5931;48.832;9.072;2023-05-07T14:33:48;16.40;99.90
11748;DHT22;5931;48.832;9.072;2023-05-07T14:36:16;16.30;99.90
11748;DHT22;5931;48.832;9.072;2023-05-07T14:38:42;16.30;99.90
11748;DHT22;5931;48.832;9.072;2023-05-07T14:41:08;16.30;99.90
11748;DHT22;5931;48.832;9.072;2023-05-07T14:43:34;16.30;99.90
11748;DHT22;5931;48.832;9.072;2023-05-07T14:45:59;16.30;99.90
11748;DHT22;5931;48.832;9.072;2023-05-07T14:48:25;16.30;99.90
11748;DHT22;5931;48.832;9.072;2023-05-07T14:50:50;16.30;99.90
11748;DHT22;5931;48.832;9.072;2023-05-07T14:53:16;16.30;99.90
11748;DHT22;5931;48.832;9.072;2023-05-07T14:55:42;16.30;99.90
11748;DHT22;5931;48.832;9.072;2023-05-07T14:58:07;16.20;99.90
11748;DHT22;5931;48.832;9.072;2023-05-07T15:00:33;16.30;99.90
11748;DHT22;5931;48.832;9.072;2023-05-07T15:03:08;16.40;99.90
11748;DHT22;5931;48.832;9.072;2023-05-07T15:05:34;16.40;99.90
11748;DHT22;5931;48.832;9.072;2023-05-07T15:08:00;16.50;99.90
11748;DHT22;5931;48.832;9.072;2023-05-07T15:10:26;16.60;99.90
11748;DHT22;5931;48.832;9.072;2023-05-07T15:12:52;16.60;99.90
11748;DHT22;5931;48.832;9.072;2023-05-07T15:15:17;16.70;99.90
11748;DHT22;5931;48.832;9.072;2023-05-07T15:17:43;16.90;99.90
11748;DHT22;5931;48.832;9.072;2023-05-07T15:20:09;16.90;99.90
11748;DHT22;5931;48.832;9.072;2023-05-07T15:22:35;16.90;99.90
11748;DHT22;5931;48.832;9.072;2023-05-07T15:25:03;16.80;99.90
11748;DHT22;5931;48.832;9.072;2023-05-07T15:27:30;16.90;99.90
11748;DHT22;5931;48.832;9.072;2023-05-07T15:29:56;17.00;99.90
11748;DHT22;5931;48.832;9.072;2023-05-07T15:32:22;17.00;99.90
11748;DHT22;5931;48.832;9.072;2023-05-07T15:34:48;17.00;99.90
11748;DHT22;5931;48.832;9.072;2023-05-07T15:37:13;17.10;99.90
11748;DHT22;5931;48.832;9.072;2023-05-07T15:39:39;17.20;99.90
11748;DHT22;5931;48.832;9.072;2023-05-07T15:42:05;17.10;99.90
11748;DHT22;5931;48.832;9.072;2023-05-07T15:44:30;17.00;99.90
11748;DHT22;5931;48.832;9.072;2023-05-07T15:46:59;16.90;99.90
11748;DHT22;5931;48.832;9.072;2023-05-07T15:49:25;16.90;99.90
11748;DHT22;5931;48.832;9.072;2023-05-07T15:51:50;16.90;99.90
11748;DHT22;5931;48.832;9.072;2023-05-07T15:54:16;16.90;99.90
11748;DHT22;5931;48.832;9.072;2023-05-07T15:56:45;16.80;99.90
11748;DHT22;5931;48.832;9.072;2023-05-07T15:59:11;16.80;99.90
11748;DHT22;5931;48.832;9.072;2023-05-07T16:01:37;16.70;99.90
11748;DHT22;5931;48.832;9.072;2023-05-07T16:04:07;16.60;99.90
11748;DHT22;5931;48.832;9.072;2023-05-07T16:06:33;16.60;99.90
11748;DHT22;5931;48.832;9.072;2023-05-07T16:09:00;16.70;99.90